aviador You're here:

KMIS Decoded Metar

MISSION in SD, USA
Report Time2017-09-24 11:55:00
UTC Time2017-09-24 12:18:47
Flight Rules vfr VFR
Wind110° at 17 kt
W.Rank110° ranks 5
Current wind is above 110° avg. (12.4)
Visibility9999 m
Phenomena:N/A
Clouds:Few 031 Hf
Few 038 Hf
Scattered 060 Hf
Expected CloudBase > 2,800 ft AGL from Temp-Dew spread
CeilingNone
Temp29°C (ISA +19)
Dew Point22°C (66% RH)
Heat Index32.0°C
AAT27.6°C
QNH1014 hPa
Density Alt5,102 ft
Elevation2,589 ft
Report Wrong Elevation
Raw Report
KMIS 241155Z AUTO 11017KT 10SM FEW031 FEW038 SCT060 29/22 A2993
RMK A01=

Extra information for KMIS:More info

Metar Taf Metar & Taf Last 4 Metars F.Rules Stats Wind Profile Meteogram Temp Stats Airport Information Weather charts Add Link Nearby VenuesMetar ALERT Operation Metar Decoded Social comments

AIRNAV info for KMIS